createdAt,value
2019-02-25T00:01:28.434Z,30.05
2019-02-25T00:03:55.764Z,31.82
2019-02-25T00:06:23.244Z,30.45
2019-02-25T00:08:50.378Z,32.50
2019-02-25T00:11:17.346Z,33.63
2019-02-25T00:13:44.412Z,34.30
2019-02-25T00:16:11.990Z,32.98
2019-02-25T00:18:39.054Z,33.05
2019-02-25T00:21:06.856Z,33.65
2019-02-25T00:23:33.899Z,35.55
2019-02-25T00:26:01.295Z,29.65
2019-02-25T00:28:28.296Z,38.15
2019-02-25T00:30:55.688Z,30.72
2019-02-25T00:33:22.724Z,30.65
2019-02-25T00:35:49.780Z,35.98
2019-02-25T00:38:16.838Z,34.75
2019-02-25T00:40:43.834Z,31.40
2019-02-25T00:43:10.829Z,31.37
2019-02-25T00:45:37.873Z,32.30
2019-02-25T00:48:04.959Z,32.60
2019-02-25T00:50:32.314Z,31.07
2019-02-25T00:52:59.735Z,32.03
2019-02-25T00:55:27.059Z,31.52
2019-02-25T00:57:54.054Z,28.17
2019-02-25T01:00:21.800Z,31.90
2019-02-25T01:02:49.310Z,34.27
2019-02-25T01:05:17.732Z,31.90
2019-02-25T01:07:44.952Z,28.65
2019-02-25T01:10:12.699Z,30.92
2019-02-25T01:12:41.630Z,30.05
2019-02-25T01:15:09.225Z,31.80
2019-02-25T01:17:36.682Z,32.00
2019-02-25T01:20:04.826Z,29.32
2019-02-25T01:22:32.999Z,34.65
2019-02-25T01:25:00.007Z,29.45
2019-02-25T01:27:27.428Z,30.35
2019-02-25T01:29:55.838Z,27.17
2019-02-25T01:32:23.286Z,30.88
2019-02-25T01:34:50.772Z,26.27
2019-02-25T01:37:17.880Z,32.50
2019-02-25T01:39:44.986Z,30.17
2019-02-25T01:42:14.452Z,29.23
2019-02-25T01:44:41.946Z,28.60
2019-02-25T01:47:09.242Z,30.00
2019-02-25T01:49:36.484Z,30.17
2019-02-25T01:52:03.951Z,30.02
2019-02-25T01:54:31.318Z,28.57
2019-02-25T01:56:58.427Z,26.93
2019-02-25T01:59:27.336Z,30.00
2019-02-25T02:01:54.611Z,29.72
2019-02-25T02:04:21.712Z,31.35
2019-02-25T02:06:48.965Z,23.70
2019-02-25T02:09:16.238Z,23.15
2019-02-25T02:11:43.268Z,27.80
2019-02-25T02:14:10.307Z,29.70
2019-02-25T02:16:37.422Z,25.02
2019-02-25T02:19:04.554Z,24.98
2019-02-25T02:21:31.560Z,25.32
2019-02-25T02:23:59.134Z,24.77
2019-02-25T02:26:26.206Z,26.97
2019-02-25T02:28:53.367Z,24.70
2019-02-25T02:31:20.361Z,25.97
2019-02-25T02:33:47.400Z,25.20
2019-02-25T02:36:14.568Z,26.87
2019-02-25T02:38:41.552Z,25.68
2019-02-25T02:41:08.858Z,24.92
2019-02-25T02:43:36.122Z,26.12
2019-02-25T02:46:10.991Z,25.43
2019-02-25T02:48:59.991Z,24.15
2019-02-25T02:51:27.096Z,24.85
2019-02-25T02:53:54.728Z,28.10
2019-02-25T02:56:21.798Z,24.45
2019-02-25T02:58:49.309Z,27.32
2019-02-25T03:01:16.666Z,27.42
2019-02-25T03:03:44.757Z,26.35
2019-02-25T03:06:12.048Z,25.02
2019-02-25T03:08:39.496Z,26.35
2019-02-25T03:11:07.319Z,26.27
2019-02-25T03:13:34.363Z,25.45
2019-02-25T03:16:01.603Z,26.52
2019-02-25T03:18:29.126Z,27.98
2019-02-25T03:20:57.357Z,23.75
2019-02-25T03:23:24.531Z,25.97
2019-02-25T03:25:51.623Z,22.37
2019-02-25T03:28:18.617Z,26.02
2019-02-25T03:30:46.311Z,26.95
2019-02-25T03:33:13.599Z,27.80
2019-02-25T03:35:41.008Z,24.87
2019-02-25T03:38:09.391Z,26.42
2019-02-25T03:40:36.504Z,25.32
2019-02-25T03:43:03.937Z,25.48
2019-02-25T03:45:30.968Z,25.37
2019-02-25T03:47:58.441Z,23.52
2019-02-25T03:50:25.600Z,27.13
2019-02-25T03:52:52.619Z,24.12
2019-02-25T03:55:20.013Z,24.02
2019-02-25T03:57:47.450Z,27.27
2019-02-25T04:00:17.190Z,26.27
2019-02-25T04:02:44.397Z,25.50
2019-02-25T04:05:12.683Z,27.45
2019-02-25T04:07:39.933Z,29.60
2019-02-25T04:10:08.293Z,26.40
2019-02-25T04:12:35.404Z,28.67
2019-02-25T04:15:03.294Z,28.20
2019-02-25T04:17:30.423Z,29.12
2019-02-25T04:19:57.528Z,24.20
2019-02-25T04:22:24.878Z,26.70
2019-02-25T04:24:52.219Z,22.98
2019-02-25T04:27:19.299Z,28.02
2019-02-25T04:29:46.335Z,24.75
2019-02-25T04:32:13.356Z,26.45
2019-02-25T04:34:40.403Z,28.23
2019-02-25T04:37:07.420Z,27.55
2019-02-25T04:39:34.407Z,26.27
2019-02-25T04:42:01.674Z,26.25
2019-02-25T04:44:28.732Z,26.55
2019-02-25T04:46:55.813Z,25.05
2019-02-25T04:49:24.339Z,27.15
2019-02-25T04:51:53.810Z,23.55
2019-02-25T04:54:21.667Z,28.55
2019-02-25T04:56:49.315Z,23.83
2019-02-25T04:59:16.686Z,23.70
2019-02-25T05:01:44.081Z,25.08
2019-02-25T05:04:11.160Z,25.55
2019-02-25T05:06:38.383Z,25.80
2019-02-25T05:09:05.582Z,23.62
2019-02-25T05:11:33.994Z,28.70
2019-02-25T05:14:01.260Z,25.40
2019-02-25T05:16:28.644Z,24.00
2019-02-25T05:18:55.646Z,24.52
2019-02-25T05:21:23.283Z,25.45
2019-02-25T05:23:50.810Z,26.90
2019-02-25T05:26:17.850Z,24.92
2019-02-25T05:28:45.015Z,23.57
2019-02-25T05:31:12.929Z,24.50
2019-02-25T05:33:40.091Z,24.50
2019-02-25T05:36:07.214Z,21.85
2019-02-25T05:38:34.311Z,24.12
2019-02-25T05:41:01.352Z,25.85
2019-02-25T05:43:28.727Z,24.98
2019-02-25T05:45:56.119Z,27.82
2019-02-25T05:48:23.406Z,25.25
2019-02-25T05:50:50.683Z,26.05
2019-02-25T05:53:17.706Z,25.00
2019-02-25T05:55:44.684Z,26.30
2019-02-25T05:58:11.850Z,30.35
2019-02-25T06:00:41.083Z,23.00
2019-02-25T06:03:08.070Z,24.25
2019-02-25T06:05:35.204Z,28.83
2019-02-25T06:08:02.486Z,27.90
2019-02-25T06:10:29.692Z,27.13
2019-02-25T06:12:57.182Z,26.50
2019-02-25T06:15:24.714Z,27.10
2019-02-25T06:17:52.102Z,30.05
2019-02-25T06:20:19.200Z,29.60
2019-02-25T06:22:46.264Z,28.47
2019-02-25T06:25:13.580Z,25.23
2019-02-25T06:27:40.707Z,26.97
2019-02-25T06:30:10.522Z,29.00
2019-02-25T06:32:38.131Z,29.45
2019-02-25T06:35:05.670Z,27.32
2019-02-25T06:37:33.796Z,28.95
2019-02-25T06:40:00.941Z,29.87
2019-02-25T06:42:28.368Z,24.43
2019-02-25T06:44:55.402Z,24.75
2019-02-25T06:47:25.414Z,26.60
2019-02-25T06:49:53.158Z,34.45
2019-02-25T06:52:20.325Z,34.25
2019-02-25T06:54:47.624Z,40.70
2019-02-25T06:57:14.964Z,29.25
2019-02-25T06:59:42.155Z,30.85
2019-02-25T07:02:09.169Z,36.25
2019-02-25T07:04:54.371Z,37.75
2019-02-25T07:07:39.982Z,30.50
2019-02-25T07:10:22.185Z,29.42
2019-02-25T07:12:59.275Z,26.62
2019-02-25T07:15:49.410Z,32.83
2019-02-25T07:18:25.791Z,30.77
2019-02-25T07:21:13.145Z,33.08
2019-02-25T07:23:52.035Z,29.98
2019-02-25T07:26:37.754Z,27.22
2019-02-25T07:29:11.703Z,29.00
2019-02-25T07:31:55.561Z,28.27
2019-02-25T07:34:35.374Z,25.35
2019-02-25T07:37:31.951Z,25.65
2019-02-25T07:40:17.186Z,28.90
2019-02-25T07:43:04.562Z,26.85
2019-02-25T07:45:54.403Z,29.25
2019-02-25T07:48:47.034Z,24.50
2019-02-25T07:51:21.412Z,28.92
2019-02-25T07:54:06.997Z,29.55
2019-02-25T07:56:57.062Z,25.90
2019-02-25T07:59:30.302Z,28.70
2019-02-25T08:02:13.028Z,26.93
2019-02-25T08:05:08.640Z,29.42
2019-02-25T08:08:00.966Z,32.75
2019-02-25T08:10:47.998Z,36.50
2019-02-25T08:13:37.716Z,31.23
2019-02-25T08:16:23.710Z,30.25
2019-02-25T08:19:09.536Z,33.42
2019-02-25T08:21:56.318Z,30.75
2019-02-25T08:24:47.528Z,34.75
2019-02-25T08:27:32.961Z,31.50
2019-02-25T08:30:18.039Z,30.20
2019-02-25T08:33:12.877Z,32.08
2019-02-25T08:36:40.846Z,32.60
2019-02-25T08:39:25.420Z,28.80
2019-02-25T08:42:02.103Z,31.37
2019-02-25T08:44:45.054Z,31.62
2019-02-25T08:47:28.338Z,33.83
2019-02-25T08:50:04.428Z,34.43
2019-02-25T08:52:32.069Z,30.15
2019-02-25T08:54:59.193Z,29.30
2019-02-25T08:57:26.641Z,35.08
2019-02-25T08:59:54.139Z,34.25
2019-02-25T09:02:21.241Z,30.35
2019-02-25T09:04:49.280Z,32.20
2019-02-25T09:07:16.836Z,30.60
2019-02-25T09:09:44.087Z,32.48
2019-02-25T09:12:12.234Z,29.63
2019-02-25T09:14:39.383Z,33.45
2019-02-25T09:17:06.713Z,35.90
2019-02-25T09:19:34.877Z,30.48
2019-02-25T09:22:02.446Z,30.50
2019-02-25T09:24:29.580Z,35.58
2019-02-25T09:26:57.059Z,30.85
2019-02-25T09:29:24.074Z,29.72
2019-02-25T09:31:51.053Z,29.50
2019-02-25T09:34:18.548Z,32.17
2019-02-25T09:36:46.397Z,28.20
2019-02-25T09:39:13.685Z,31.33
2019-02-25T09:41:40.995Z,30.37
2019-02-25T09:44:08.433Z,32.53
2019-02-25T09:46:35.935Z,30.68
2019-02-25T09:49:03.430Z,32.42
2019-02-25T09:51:30.479Z,29.42
2019-02-25T09:53:57.526Z,32.63
2019-02-25T09:56:24.974Z,32.48
2019-02-25T09:58:52.088Z,38.05
2019-02-25T10:01:19.152Z,33.85
2019-02-25T10:03:46.292Z,28.57
2019-02-25T10:06:13.896Z,29.45
2019-02-25T10:08:41.319Z,33.40
2019-02-25T10:11:08.410Z,26.95
2019-02-25T10:13:35.993Z,30.43
2019-02-25T10:16:03.575Z,39.08
2019-02-25T10:18:31.152Z,36.58
2019-02-25T10:20:58.366Z,32.33
2019-02-25T10:23:25.705Z,34.38
2019-02-25T10:25:52.845Z,37.98
2019-02-25T10:28:20.784Z,34.50
2019-02-25T10:30:52.792Z,34.00
2019-02-25T10:33:17.762Z,32.00
2019-02-25T10:35:45.057Z,31.12
2019-02-25T10:38:12.286Z,36.85
2019-02-25T10:40:39.443Z,27.25
2019-02-25T10:43:06.803Z,30.08
2019-02-25T10:45:35.233Z,31.15
2019-02-25T10:48:03.558Z,34.10
2019-02-25T10:50:33.375Z,30.92
2019-02-25T10:53:03.558Z,28.27
2019-02-25T10:55:32.743Z,30.92
2019-02-25T10:58:03.799Z,30.32
2019-02-25T11:00:31.113Z,29.37
2019-02-25T11:02:58.564Z,33.23
2019-02-25T11:05:27.858Z,33.08
2019-02-25T11:07:54.738Z,30.68
2019-02-25T11:10:34.295Z,27.65
2019-02-25T11:13:02.595Z,30.02
2019-02-25T11:15:32.418Z,27.58
2019-02-25T11:17:59.940Z,28.30
2019-02-25T11:20:27.689Z,27.37
2019-02-25T11:22:56.230Z,30.82
2019-02-25T11:25:24.133Z,24.82
2019-02-25T11:28:24.796Z,26.95
2019-02-25T11:30:47.567Z,25.68
2019-02-25T11:33:15.418Z,27.82
2019-02-25T11:35:43.432Z,22.77
2019-02-25T11:38:12.073Z,24.43
2019-02-25T11:40:40.219Z,17.77
2019-02-25T11:43:08.415Z,25.37
2019-02-25T11:45:36.596Z,25.27
2019-02-25T11:48:03.708Z,20.32
2019-02-25T11:50:30.855Z,20.80
2019-02-25T11:52:57.872Z,23.75
2019-02-25T11:55:25.331Z,20.25
2019-02-25T11:57:52.359Z,21.62
2019-02-25T12:00:20.109Z,23.32
2019-02-25T12:02:49.892Z,21.00
2019-02-25T12:05:17.339Z,19.52
2019-02-25T12:07:44.636Z,22.50
2019-02-25T12:10:12.188Z,22.55
2019-02-25T12:12:39.525Z,23.42
2019-02-25T12:15:07.918Z,22.87
2019-02-25T12:17:36.218Z,21.52
2019-02-25T12:20:04.060Z,23.22
2019-02-25T12:22:31.218Z,21.30
2019-02-25T12:24:58.237Z,24.50
2019-02-25T12:27:25.822Z,24.70
2019-02-25T12:29:53.231Z,26.57
2019-02-25T12:32:20.575Z,29.25
2019-02-25T12:34:47.564Z,23.77
2019-02-25T12:37:15.267Z,23.95
2019-02-25T12:39:42.445Z,26.70
2019-02-25T12:42:10.255Z,22.65
2019-02-25T12:44:37.771Z,24.45
2019-02-25T12:47:05.169Z,22.55
2019-02-25T12:49:32.575Z,23.83
2019-02-25T12:52:00.095Z,21.55
2019-02-25T12:54:27.217Z,20.50
2019-02-25T12:56:54.609Z,20.55
2019-02-25T12:59:22.048Z,23.00
2019-02-25T13:01:50.444Z,21.52
2019-02-25T13:04:18.175Z,21.40
2019-02-25T13:06:45.220Z,23.22
2019-02-25T13:09:13.609Z,21.55
2019-02-25T13:11:40.881Z,19.10
2019-02-25T13:14:08.102Z,21.57
2019-02-25T13:16:38.235Z,24.00
2019-02-25T13:19:05.370Z,23.55
2019-02-25T13:21:32.468Z,19.05
2019-02-25T13:24:01.900Z,20.88
2019-02-25T13:26:29.841Z,17.87
2019-02-25T13:28:58.219Z,18.23
2019-02-25T13:31:25.343Z,20.05
2019-02-25T13:33:52.523Z,17.48
2019-02-25T13:36:20.199Z,17.98
2019-02-25T13:38:48.163Z,18.45
2019-02-25T13:41:15.598Z,19.55
2019-02-25T13:43:42.695Z,20.20
2019-02-25T13:46:09.871Z,18.07
2019-02-25T13:48:37.298Z,17.73
2019-02-25T13:51:04.859Z,19.40
2019-02-25T13:53:31.975Z,18.12
2019-02-25T13:55:59.233Z,18.25
2019-02-25T13:58:26.396Z,18.52
2019-02-25T14:00:53.641Z,18.57
2019-02-25T14:03:20.890Z,17.48
2019-02-25T14:05:48.268Z,19.37
2019-02-25T14:08:16.720Z,18.67
2019-02-25T14:10:44.646Z,20.37
2019-02-25T14:13:11.941Z,18.15
2019-02-25T14:15:39.330Z,19.30
2019-02-25T14:18:06.815Z,20.15
2019-02-25T14:20:34.235Z,17.05
2019-02-25T14:23:01.659Z,17.40
2019-02-25T14:25:28.893Z,16.35
2019-02-25T14:27:56.705Z,19.40
2019-02-25T14:30:24.162Z,18.57
2019-02-25T14:32:54.118Z,21.93
2019-02-25T14:35:25.999Z,16.12
2019-02-25T14:37:53.055Z,17.75
2019-02-25T14:40:21.737Z,21.17
2019-02-25T14:42:51.996Z,22.07
2019-02-25T14:45:21.809Z,21.33
2019-02-25T14:47:55.399Z,18.73
2019-02-25T14:50:19.527Z,20.35
2019-02-25T14:52:48.287Z,20.20
2019-02-25T14:55:15.769Z,21.27
2019-02-25T14:57:44.355Z,21.35
2019-02-25T15:00:15.006Z,21.02
2019-02-25T15:02:45.497Z,19.32
2019-02-25T15:05:13.063Z,19.85
2019-02-25T15:07:42.884Z,20.48
2019-02-25T15:10:11.146Z,20.80
2019-02-25T15:12:39.559Z,21.68
2019-02-25T15:15:10.093Z,23.32
2019-02-25T15:17:37.317Z,17.65
2019-02-25T15:20:04.959Z,19.27
2019-02-25T15:22:33.963Z,19.40
2019-02-25T15:25:02.218Z,22.67
2019-02-25T15:27:30.606Z,20.57
2019-02-25T15:29:58.397Z,18.67
2019-02-25T15:32:26.057Z,19.45
2019-02-25T15:34:54.985Z,20.92
2019-02-25T15:37:23.641Z,19.62
2019-02-25T15:39:52.548Z,19.17
2019-02-25T15:42:19.853Z,18.32
2019-02-25T15:44:49.341Z,21.07
2019-02-25T15:47:16.711Z,19.65
2019-02-25T15:49:43.858Z,21.62
2019-02-25T15:52:14.657Z,21.68
2019-02-25T15:54:41.429Z,22.00
2019-02-25T15:57:10.124Z,23.25
2019-02-25T15:59:37.309Z,23.15
2019-02-25T16:02:05.604Z,22.82
2019-02-25T16:04:36.099Z,24.00
2019-02-25T16:07:07.833Z,25.30
2019-02-25T16:09:34.751Z,26.17
2019-02-25T16:12:03.282Z,24.67
2019-02-25T16:14:32.502Z,24.50
2019-02-25T16:16:59.958Z,28.73
2019-02-25T16:19:38.787Z,27.75
2019-02-25T16:21:56.788Z,26.68
2019-02-25T16:24:25.661Z,26.85
2019-02-25T16:26:56.070Z,26.73
2019-02-25T16:29:23.136Z,27.82
2019-02-25T16:31:51.562Z,28.83
2019-02-25T16:34:20.669Z,24.90
2019-02-25T16:36:51.493Z,26.02
2019-02-25T16:39:18.144Z,24.43
2019-02-25T16:41:45.745Z,26.07
2019-02-25T16:44:14.267Z,29.92
2019-02-25T16:46:43.578Z,26.62
2019-02-25T16:49:10.963Z,27.55
2019-02-25T16:51:38.126Z,29.07
2019-02-25T16:54:09.110Z,28.25
2019-02-25T16:56:34.659Z,26.65
2019-02-25T16:59:10.571Z,29.37
2019-02-25T17:01:32.191Z,27.73
2019-02-25T17:04:00.610Z,30.00
2019-02-25T17:06:28.113Z,30.17
2019-02-25T17:08:57.781Z,31.68
2019-02-25T17:11:25.742Z,29.50
2019-02-25T17:13:54.954Z,29.15
2019-02-25T17:16:24.123Z,29.05
2019-02-25T17:18:53.712Z,31.12
2019-02-25T17:21:21.232Z,28.55
2019-02-25T17:23:48.592Z,29.07
2019-02-25T17:26:17.542Z,30.08
2019-02-25T17:28:45.035Z,29.98
2019-02-25T17:31:14.352Z,31.30
2019-02-25T17:33:41.855Z,31.50
2019-02-25T17:36:10.695Z,31.33
2019-02-25T17:38:40.686Z,30.40
2019-02-25T17:41:10.685Z,29.52
2019-02-25T17:43:39.160Z,28.45
2019-02-25T17:46:09.257Z,33.30
2019-02-25T17:48:36.861Z,32.15
2019-02-25T17:51:04.727Z,32.78
2019-02-25T17:53:32.771Z,31.02
2019-02-25T17:56:00.206Z,28.45
2019-02-25T17:58:27.380Z,28.60
2019-02-25T18:00:56.602Z,32.42
2019-02-25T18:03:26.017Z,34.35
2019-02-25T18:05:53.741Z,31.48
2019-02-25T18:08:21.029Z,31.70
2019-02-25T18:10:50.068Z,32.60
2019-02-25T18:13:17.656Z,37.13
2019-02-25T18:15:47.033Z,31.87
2019-02-25T18:18:15.167Z,33.40
2019-02-25T18:20:43.294Z,31.02
2019-02-25T18:23:10.751Z,31.02
2019-02-25T18:25:39.744Z,31.57
2019-02-25T18:28:08.622Z,32.10
2019-02-25T18:30:36.832Z,35.35
2019-02-25T18:33:05.231Z,32.00
2019-02-25T18:35:35.765Z,32.67
2019-02-25T18:38:04.780Z,34.10
2019-02-25T18:40:33.554Z,34.13
2019-02-25T18:43:02.567Z,36.88
2019-02-25T18:45:30.747Z,33.15
2019-02-25T18:47:58.044Z,36.30
2019-02-25T18:50:26.870Z,33.65
2019-02-25T18:52:56.844Z,33.92
2019-02-25T18:55:24.920Z,33.90
2019-02-25T18:57:54.359Z,38.58
2019-02-25T19:00:31.037Z,35.33
2019-02-25T19:02:58.689Z,36.30
2019-02-25T19:05:29.312Z,31.93
2019-02-25T19:07:57.642Z,35.92
2019-02-25T19:10:26.827Z,32.90
2019-02-25T19:12:56.347Z,32.73
2019-02-25T19:15:24.810Z,31.93
2019-02-25T19:17:54.416Z,36.05
2019-02-25T19:20:21.787Z,33.88
2019-02-25T19:22:49.490Z,33.50
2019-02-25T19:25:18.164Z,32.90
2019-02-25T19:27:47.943Z,38.83
2019-02-25T19:30:19.504Z,35.43
2019-02-25T19:32:45.687Z,35.88
2019-02-25T19:35:13.421Z,39.95
2019-02-25T19:37:44.441Z,32.40
2019-02-25T19:40:19.605Z,39.95
2019-02-25T19:42:51.135Z,37.58
2019-02-25T19:45:16.725Z,36.83
2019-02-25T19:47:44.594Z,37.93
2019-02-25T19:50:12.210Z,38.85
2019-02-25T19:52:41.867Z,36.10
2019-02-25T19:55:10.541Z,35.25
2019-02-25T19:57:38.478Z,36.68
2019-02-25T20:00:09.407Z,41.53
2019-02-25T20:02:38.612Z,38.73
2019-02-25T20:05:09.587Z,39.38
2019-02-25T20:07:36.007Z,37.63
2019-02-25T20:10:05.170Z,39.67
2019-02-25T20:12:35.607Z,43.23
2019-02-25T20:15:07.130Z,41.35
2019-02-25T20:17:33.646Z,38.80
2019-02-25T20:20:02.982Z,41.33
2019-02-25T20:22:32.753Z,36.48
2019-02-25T20:25:00.422Z,39.60
2019-02-25T20:27:27.670Z,36.77
2019-02-25T20:29:55.873Z,38.70
2019-02-25T20:32:24.736Z,41.60
2019-02-25T20:34:54.455Z,41.10
2019-02-25T20:37:22.909Z,37.55
2019-02-25T20:39:50.676Z,39.67
2019-02-25T20:42:21.696Z,39.03
2019-02-25T20:44:49.264Z,42.30
2019-02-25T20:47:18.066Z,40.12
2019-02-25T20:49:47.399Z,40.28
2019-02-25T20:52:16.027Z,43.00
2019-02-25T20:54:45.342Z,41.92
2019-02-25T20:57:13.871Z,43.58
2019-02-25T20:59:41.254Z,38.25
2019-02-25T21:02:13.769Z,40.75
2019-02-25T21:04:38.741Z,44.42
2019-02-25T21:07:10.856Z,37.13
2019-02-25T21:09:37.739Z,44.67
2019-02-25T21:12:10.309Z,46.13
2019-02-25T21:14:37.990Z,44.80
2019-02-25T21:17:06.957Z,41.30
2019-02-25T21:19:36.149Z,43.78
2019-02-25T21:22:04.502Z,41.60
2019-02-25T21:24:33.731Z,42.13
2019-02-25T21:27:03.682Z,45.67
2019-02-25T21:29:31.850Z,53.17
2019-02-25T21:32:00.265Z,42.70
2019-02-25T21:34:29.146Z,43.25
2019-02-25T21:36:58.329Z,48.23
2019-02-25T21:39:26.107Z,44.18
2019-02-25T21:41:53.450Z,46.85
2019-02-25T21:44:21.437Z,43.10
2019-02-25T21:46:51.955Z,45.45
2019-02-25T21:49:20.265Z,47.08
2019-02-25T21:51:48.133Z,39.58
2019-02-25T21:54:15.519Z,43.60
2019-02-25T21:56:42.643Z,48.45
2019-02-25T21:59:10.510Z,46.18
2019-02-25T22:01:39.473Z,47.35
2019-02-25T22:04:09.261Z,46.53
2019-02-25T22:06:36.772Z,45.17
2019-02-25T22:09:05.766Z,41.70
2019-02-25T22:11:34.752Z,44.33
2019-02-25T22:14:01.937Z,42.85
2019-02-25T22:16:30.040Z,44.77
2019-02-25T22:18:58.844Z,45.03
2019-02-25T22:21:26.070Z,42.35
2019-02-25T22:23:55.962Z,44.40
2019-02-25T22:26:25.249Z,45.05
2019-02-25T22:28:53.227Z,47.90
2019-02-25T22:31:21.048Z,50.35
2019-02-25T22:33:48.179Z,48.38
2019-02-25T22:36:15.798Z,48.38
2019-02-25T22:38:43.242Z,47.48
2019-02-25T22:41:11.660Z,45.15
2019-02-25T22:43:41.297Z,46.05
2019-02-25T22:46:11.131Z,44.50
2019-02-25T22:48:37.665Z,47.62
2019-02-25T22:51:06.986Z,45.28
2019-02-25T22:53:34.477Z,45.20
2019-02-25T22:56:01.880Z,49.00
2019-02-25T22:58:29.098Z,51.68
2019-02-25T23:01:06.646Z,45.70
2019-02-25T23:03:35.764Z,49.05
2019-02-25T23:06:03.492Z,51.30
2019-02-25T23:08:30.641Z,50.30
2019-02-25T23:10:57.885Z,44.88
2019-02-25T23:13:27.489Z,47.88
2019-02-25T23:15:54.437Z,51.05
2019-02-25T23:18:22.949Z,49.85
2019-02-25T23:20:52.526Z,48.75
2019-02-25T23:23:21.294Z,51.58
2019-02-25T23:25:51.284Z,52.80
2019-02-25T23:28:20.547Z,51.35
2019-02-25T23:30:47.679Z,55.55
2019-02-25T23:33:16.761Z,51.68
2019-02-25T23:35:46.607Z,53.98
2019-02-25T23:38:12.831Z,55.75
2019-02-25T23:40:42.765Z,51.20
2019-02-25T23:43:10.132Z,55.52
2019-02-25T23:45:39.969Z,52.20
2019-02-25T23:48:08.959Z,53.17
2019-02-25T23:50:36.339Z,51.25
2019-02-25T23:53:03.442Z,49.13
2019-02-25T23:55:30.761Z,49.25
2019-02-25T23:57:57.953Z,45.83
